createdAt,value
2019-05-18T00:00:04.523Z,8.40
2019-05-18T00:01:04.432Z,8.30
2019-05-18T00:02:04.809Z,8.30
2019-05-18T00:03:04.774Z,8.30
2019-05-18T00:04:09.940Z,8.20
2019-05-18T00:05:04.258Z,8.20
2019-05-18T00:06:05.083Z,8.20
2019-05-18T00:07:04.930Z,8.20
2019-05-18T00:08:04.093Z,8.10
2019-05-18T00:09:05.037Z,8.10
2019-05-18T00:10:04.565Z,8.10
2019-05-18T00:11:05.157Z,8.00
2019-05-18T00:12:05.041Z,8.00
2019-05-18T00:13:04.350Z,8.00
2019-05-18T00:14:04.647Z,8.00
2019-05-18T00:15:04.896Z,8.00
2019-05-18T00:16:04.410Z,7.90
2019-05-18T00:17:07.796Z,7.90
2019-05-18T00:18:04.340Z,7.90
2019-05-18T00:19:04.409Z,7.90
2019-05-18T00:20:04.342Z,7.90
2019-05-18T00:21:04.807Z,7.90
2019-05-18T00:22:04.644Z,7.90
2019-05-18T00:23:04.681Z,7.90
2019-05-18T00:24:04.241Z,7.90
2019-05-18T00:25:04.514Z,7.90
2019-05-18T00:26:04.424Z,7.90
2019-05-18T00:27:04.708Z,7.90
2019-05-18T00:28:04.696Z,7.80
2019-05-18T00:29:04.837Z,7.80
2019-05-18T00:30:04.742Z,7.80
2019-05-18T00:31:04.176Z,7.80
2019-05-18T00:32:04.577Z,7.80
2019-05-18T00:33:04.555Z,7.80
2019-05-18T00:34:04.955Z,7.80
2019-05-18T00:35:04.281Z,7.80
2019-05-18T00:36:04.159Z,7.80
2019-05-18T00:37:04.557Z,7.80
2019-05-18T00:38:04.338Z,7.70
2019-05-18T00:39:04.873Z,7.70
2019-05-18T00:40:04.909Z,7.70
2019-05-18T00:41:04.392Z,7.70
2019-05-18T00:42:04.559Z,7.70
2019-05-18T00:43:04.565Z,7.70
2019-05-18T00:44:09.779Z,7.70
2019-05-18T00:45:05.058Z,7.70
2019-05-18T00:46:05.035Z,7.70
2019-05-18T00:47:04.372Z,7.70
2019-05-18T00:48:04.292Z,7.70
2019-05-18T00:49:04.223Z,7.70
2019-05-18T00:50:04.175Z,7.60
2019-05-18T00:51:04.625Z,7.60
2019-05-18T00:52:04.416Z,7.60
2019-05-18T00:53:04.640Z,7.60
2019-05-18T00:54:04.517Z,7.60
2019-05-18T00:55:04.542Z,7.60
2019-05-18T00:56:04.502Z,7.60
2019-05-18T00:57:04.698Z,7.60
2019-05-18T00:58:04.839Z,7.60
2019-05-18T00:59:04.214Z,7.60
2019-05-18T01:00:04.304Z,7.60
2019-05-18T01:01:04.260Z,7.50
2019-05-18T01:02:04.286Z,7.60
2019-05-18T01:03:04.790Z,7.50
2019-05-18T01:04:09.888Z,7.50
2019-05-18T01:05:04.144Z,7.50
2019-05-18T01:06:04.470Z,7.50
2019-05-18T01:07:04.868Z,7.50
2019-05-18T01:08:04.722Z,7.50
2019-05-18T01:09:04.158Z,7.50
2019-05-18T01:10:04.190Z,7.50
2019-05-18T01:11:04.529Z,7.50
2019-05-18T01:12:04.943Z,7.50
2019-05-18T01:13:04.763Z,7.50
2019-05-18T01:14:04.785Z,7.50
2019-05-18T01:15:04.612Z,7.50
2019-05-18T01:16:04.135Z,7.40
2019-05-18T01:17:04.202Z,7.40
2019-05-18T01:18:04.597Z,7.40
2019-05-18T01:19:04.520Z,7.40
2019-05-18T01:20:05.028Z,7.40
2019-05-18T01:21:04.618Z,7.40
2019-05-18T01:22:04.502Z,7.30
2019-05-18T01:23:05.160Z,7.30
2019-05-18T01:24:04.949Z,7.30
2019-05-18T01:25:04.334Z,7.30
2019-05-18T01:26:04.489Z,7.30
2019-05-18T01:27:05.008Z,7.30
2019-05-18T01:28:04.922Z,7.30
2019-05-18T01:29:05.063Z,7.20
2019-05-18T01:30:04.410Z,7.20
2019-05-18T01:31:04.919Z,7.20
2019-05-18T01:32:04.779Z,7.20
2019-05-18T01:33:04.871Z,7.20
2019-05-18T01:34:04.966Z,7.20
2019-05-18T01:35:04.442Z,7.20
2019-05-18T01:36:04.452Z,7.20
2019-05-18T01:37:04.553Z,7.20
2019-05-18T01:38:04.491Z,7.20
2019-05-18T01:39:04.624Z,7.20
2019-05-18T01:40:04.727Z,7.20
2019-05-18T01:41:05.193Z,7.20
2019-05-18T01:42:04.425Z,7.20
2019-05-18T01:43:04.457Z,7.20
2019-05-18T01:44:09.336Z,7.20
2019-05-18T01:45:16.121Z,7.20
2019-05-18T01:46:04.986Z,7.20
2019-05-18T01:47:04.882Z,7.10
2019-05-18T01:48:13.037Z,7.10
2019-05-18T01:49:04.998Z,7.10
2019-05-18T01:50:04.914Z,7.10
2019-05-18T01:51:04.303Z,7.10
2019-05-18T01:52:04.236Z,7.10
2019-05-18T01:53:04.293Z,7.10
2019-05-18T01:54:04.354Z,7.00
2019-05-18T01:55:04.243Z,7.00
2019-05-18T01:56:04.274Z,7.00
2019-05-18T01:58:05.051Z,7.00
2019-05-18T01:59:05.016Z,7.00
2019-05-18T02:00:04.939Z,7.00
2019-05-18T02:01:05.027Z,7.00
2019-05-18T02:02:04.182Z,7.00
2019-05-18T02:03:04.123Z,7.00
2019-05-18T02:04:04.430Z,7.00
2019-05-18T02:05:04.579Z,6.90
2019-05-18T02:06:04.506Z,7.00
2019-05-18T02:07:04.385Z,6.90
2019-05-18T02:08:04.883Z,6.90
2019-05-18T02:09:04.714Z,6.90
2019-05-18T02:10:05.071Z,6.90
2019-05-18T02:11:04.965Z,6.90
2019-05-18T02:12:04.392Z,6.90
2019-05-18T02:13:04.235Z,6.90
2019-05-18T02:14:04.525Z,6.90
2019-05-18T02:15:04.546Z,6.90
2019-05-18T02:16:04.090Z,6.90
2019-05-18T02:17:04.232Z,6.90
2019-05-18T02:18:05.042Z,6.80
2019-05-18T02:19:04.602Z,6.80
2019-05-18T02:20:04.785Z,6.80
2019-05-18T02:21:04.720Z,6.80
2019-05-18T02:22:04.797Z,6.80
2019-05-18T02:23:04.893Z,6.80
2019-05-18T02:24:04.967Z,6.80
2019-05-18T02:25:05.002Z,6.80
2019-05-18T02:26:04.154Z,6.80
2019-05-18T02:27:04.143Z,6.80
2019-05-18T02:28:04.438Z,6.80
2019-05-18T02:29:04.589Z,6.80
2019-05-18T02:30:04.149Z,6.70
2019-05-18T02:31:04.222Z,6.70
2019-05-18T02:32:04.498Z,6.70
2019-05-18T02:33:04.544Z,6.70
2019-05-18T02:34:05.034Z,6.70
2019-05-18T02:35:05.037Z,6.70
2019-05-18T02:36:04.905Z,6.70
2019-05-18T02:37:04.485Z,6.70
2019-05-18T02:38:04.434Z,6.70
2019-05-18T02:39:04.479Z,6.70
2019-05-18T02:40:04.486Z,6.60
2019-05-18T02:41:04.856Z,6.60
2019-05-18T02:42:04.910Z,6.60
2019-05-18T02:43:04.843Z,6.70
2019-05-18T02:44:09.796Z,6.70
2019-05-18T02:45:05.060Z,6.70
2019-05-18T02:46:04.956Z,6.60
2019-05-18T02:47:04.242Z,6.60
2019-05-18T02:48:04.762Z,6.60
2019-05-18T02:49:04.653Z,6.60
2019-05-18T02:50:04.645Z,6.60
2019-05-18T02:51:04.795Z,6.60
2019-05-18T02:52:04.686Z,6.60
2019-05-18T02:53:04.687Z,6.60
2019-05-18T02:54:05.104Z,6.60
2019-05-18T02:55:04.886Z,6.60
2019-05-18T02:56:04.959Z,6.50
2019-05-18T02:57:05.079Z,6.50
2019-05-18T02:58:04.928Z,6.50
2019-05-18T02:59:05.090Z,6.50
2019-05-18T03:00:04.734Z,6.50
2019-05-18T03:01:04.685Z,6.50
2019-05-18T03:02:04.170Z,6.50
2019-05-18T03:03:04.312Z,6.50
2019-05-18T03:04:04.262Z,6.50
2019-05-18T03:05:04.816Z,6.50
2019-05-18T03:06:04.900Z,6.50
2019-05-18T03:07:04.809Z,6.50
2019-05-18T03:08:04.841Z,6.50
2019-05-18T03:09:04.904Z,6.50
2019-05-18T03:10:04.842Z,6.50
2019-05-18T03:11:05.154Z,6.50
2019-05-18T03:12:04.122Z,6.40
2019-05-18T03:13:04.220Z,6.40
2019-05-18T03:14:09.446Z,6.40
2019-05-18T03:15:04.706Z,6.40
2019-05-18T03:16:04.824Z,6.40
2019-05-18T03:17:04.996Z,6.40
2019-05-18T03:18:04.602Z,6.40
2019-05-18T03:19:08.532Z,6.40
2019-05-18T03:20:04.721Z,6.40
2019-05-18T03:21:05.025Z,6.40
2019-05-18T03:22:04.309Z,6.40
2019-05-18T03:23:04.299Z,6.30
2019-05-18T03:24:04.719Z,6.30
2019-05-18T03:25:04.764Z,6.30
2019-05-18T03:26:04.651Z,6.30
2019-05-18T03:27:04.738Z,6.30
2019-05-18T03:28:04.132Z,6.30
2019-05-18T03:29:04.115Z,6.30
2019-05-18T03:30:04.474Z,6.30
2019-05-18T03:31:04.360Z,6.20
2019-05-18T03:32:04.602Z,6.20
2019-05-18T03:33:04.153Z,6.20
2019-05-18T03:34:04.743Z,6.20
2019-05-18T03:35:04.341Z,6.20
2019-05-18T03:36:04.304Z,6.20
2019-05-18T03:37:04.381Z,6.20
2019-05-18T03:38:04.291Z,6.20
2019-05-18T03:39:04.285Z,6.20
2019-05-18T03:40:04.248Z,6.10
2019-05-18T03:41:04.384Z,6.10
2019-05-18T03:42:04.462Z,6.10
2019-05-18T03:43:04.815Z,6.20
2019-05-18T03:44:09.236Z,6.10
2019-05-18T03:45:04.583Z,6.20
2019-05-18T03:46:04.515Z,6.20
2019-05-18T03:47:04.480Z,6.20
2019-05-18T03:48:04.427Z,6.20
2019-05-18T03:49:04.741Z,6.20
2019-05-18T03:50:05.043Z,6.20
2019-05-18T03:51:05.025Z,6.20
2019-05-18T03:52:04.392Z,6.10
2019-05-18T03:53:04.510Z,6.20
2019-05-18T03:54:04.794Z,6.20
2019-05-18T03:55:04.767Z,6.20
2019-05-18T03:56:04.876Z,6.20
2019-05-18T03:57:04.873Z,6.20
2019-05-18T03:58:04.467Z,6.30
2019-05-18T03:59:04.530Z,6.30
2019-05-18T04:00:04.970Z,6.40
2019-05-18T04:01:04.347Z,6.40
2019-05-18T04:02:04.454Z,6.50
2019-05-18T04:03:04.494Z,6.50
2019-05-18T04:04:09.667Z,6.60
2019-05-18T04:05:04.963Z,6.60
2019-05-18T04:06:04.871Z,6.70
2019-05-18T04:07:04.281Z,6.80
2019-05-18T04:08:04.775Z,6.90
2019-05-18T04:09:04.730Z,7.00
2019-05-18T04:10:05.048Z,7.10
2019-05-18T04:11:05.206Z,7.30
2019-05-18T04:12:04.518Z,7.40
2019-05-18T04:13:04.720Z,7.60
2019-05-18T04:14:08.054Z,7.70
2019-05-18T04:15:04.262Z,7.90
2019-05-18T04:16:04.352Z,8.10
2019-05-18T04:17:04.794Z,8.20
2019-05-18T04:18:04.609Z,8.40
2019-05-18T04:19:04.149Z,8.60
2019-05-18T04:20:05.193Z,8.70
2019-05-18T04:21:05.059Z,8.90
2019-05-18T04:22:05.074Z,9.10
2019-05-18T04:23:04.583Z,9.20
2019-05-18T04:24:04.484Z,9.30
2019-05-18T04:25:05.498Z,9.50
2019-05-18T04:26:04.340Z,9.60
2019-05-18T04:27:04.361Z,9.80
2019-05-18T04:28:04.296Z,9.90
2019-05-18T04:29:04.838Z,10.10
2019-05-18T04:30:04.187Z,10.20
2019-05-18T04:31:04.283Z,10.40
2019-05-18T04:32:04.696Z,10.60
2019-05-18T04:33:04.834Z,10.70
2019-05-18T04:34:04.375Z,10.90
2019-05-18T04:35:04.244Z,11.00
2019-05-18T04:36:04.713Z,11.20
2019-05-18T04:37:04.814Z,11.30
2019-05-18T04:38:04.839Z,11.50
2019-05-18T04:39:04.955Z,11.60
2019-05-18T04:40:04.827Z,11.80
2019-05-18T04:41:05.036Z,11.90
2019-05-18T04:42:04.468Z,12.00
2019-05-18T04:43:04.853Z,12.10
2019-05-18T04:44:09.511Z,12.20
2019-05-18T04:45:04.776Z,12.40
2019-05-18T04:46:04.798Z,12.50
2019-05-18T04:47:04.810Z,12.60
2019-05-18T04:48:04.641Z,12.70
2019-05-18T04:49:04.758Z,12.80
2019-05-18T04:50:05.968Z,12.90
2019-05-18T04:51:04.908Z,13.10
2019-05-18T04:52:04.893Z,13.20
2019-05-18T04:53:04.375Z,13.30
2019-05-18T04:54:04.172Z,13.40
2019-05-18T04:55:04.192Z,13.50
2019-05-18T04:56:04.609Z,13.60
2019-05-18T04:57:04.206Z,13.60
2019-05-18T04:58:05.031Z,13.70
2019-05-18T04:59:04.187Z,13.80
2019-05-18T05:00:04.200Z,13.90
2019-05-18T05:01:04.097Z,14.00
2019-05-18T05:02:04.304Z,14.10
2019-05-18T05:03:04.240Z,14.20
2019-05-18T05:04:04.241Z,14.30
2019-05-18T05:05:04.430Z,14.30
2019-05-18T05:06:04.812Z,14.40
2019-05-18T05:07:04.856Z,14.50
2019-05-18T05:08:04.876Z,14.60
2019-05-18T05:09:04.976Z,14.70
2019-05-18T05:10:04.918Z,14.80
2019-05-18T05:11:04.741Z,14.80
2019-05-18T05:12:05.035Z,14.90
2019-05-18T05:13:04.858Z,15.00
2019-05-18T05:14:04.918Z,15.10
2019-05-18T05:15:04.141Z,15.20
2019-05-18T05:16:05.780Z,15.20
2019-05-18T05:17:04.176Z,15.30
2019-05-18T05:18:04.198Z,15.40
2019-05-18T05:19:04.112Z,15.50
2019-05-18T05:20:17.191Z,15.60
2019-05-18T05:21:04.361Z,15.60
2019-05-18T05:22:04.876Z,15.70
2019-05-18T05:23:05.007Z,15.80
2019-05-18T05:24:04.888Z,15.90
2019-05-18T05:25:04.348Z,15.90
2019-05-18T05:26:04.272Z,16.00
2019-05-18T05:27:04.300Z,16.10
2019-05-18T05:28:04.674Z,16.10
2019-05-18T05:29:04.119Z,16.20
2019-05-18T05:30:05.034Z,16.20
2019-05-18T05:31:04.248Z,16.30
2019-05-18T05:32:04.335Z,16.30
2019-05-18T05:33:04.196Z,16.40
2019-05-18T05:34:04.619Z,16.40
2019-05-18T05:35:04.635Z,16.50
2019-05-18T05:36:04.562Z,16.50
2019-05-18T05:37:05.018Z,16.50
2019-05-18T05:38:04.833Z,16.60
2019-05-18T05:39:05.017Z,16.60
2019-05-18T05:40:05.051Z,16.70
2019-05-18T05:41:04.938Z,16.70
2019-05-18T05:42:04.096Z,16.70
2019-05-18T05:43:04.214Z,16.80
2019-05-18T05:44:09.254Z,16.80
2019-05-18T05:45:04.553Z,16.80
2019-05-18T05:46:05.110Z,16.90
2019-05-18T05:47:04.962Z,16.90
2019-05-18T05:48:04.155Z,16.90
2019-05-18T05:49:05.133Z,16.90
2019-05-18T05:50:05.070Z,17.00
2019-05-18T05:51:04.122Z,17.00
2019-05-18T05:52:05.117Z,17.00
2019-05-18T05:53:04.200Z,17.00
2019-05-18T05:54:04.363Z,17.10
2019-05-18T05:55:04.843Z,17.10
2019-05-18T05:56:04.854Z,17.10
2019-05-18T05:57:04.149Z,17.20
2019-05-18T05:58:04.595Z,17.20
2019-05-18T05:59:04.521Z,17.20
2019-05-18T06:00:05.069Z,17.30
2019-05-18T06:01:04.931Z,17.30
2019-05-18T06:02:04.363Z,17.30
2019-05-18T06:03:04.418Z,17.30
2019-05-18T06:04:09.729Z,17.40
2019-05-18T06:05:04.976Z,17.40
2019-05-18T06:06:04.865Z,17.50
2019-05-18T06:07:04.866Z,17.60
2019-05-18T06:08:04.864Z,17.60
2019-05-18T06:09:04.320Z,17.70
2019-05-18T06:10:04.759Z,17.70
2019-05-18T06:11:05.109Z,17.80
2019-05-18T06:12:04.669Z,17.90
2019-05-18T06:13:05.055Z,17.90
2019-05-18T06:14:05.052Z,17.90
2019-05-18T06:15:05.074Z,17.90
2019-05-18T06:16:04.408Z,17.90
2019-05-18T06:17:04.381Z,17.90
2019-05-18T06:18:05.002Z,17.90
2019-05-18T06:19:04.429Z,17.90
2019-05-18T06:20:04.709Z,18.00
2019-05-18T06:21:05.076Z,18.00
2019-05-18T06:22:05.066Z,18.00
2019-05-18T06:23:04.273Z,18.10
2019-05-18T06:24:04.756Z,18.10
2019-05-18T06:25:05.393Z,18.10
2019-05-18T06:26:04.484Z,18.10
2019-05-18T06:27:04.644Z,18.10
2019-05-18T06:28:04.896Z,18.20
2019-05-18T06:29:04.264Z,18.30
2019-05-18T06:30:04.576Z,18.30
2019-05-18T06:31:04.615Z,18.40
2019-05-18T06:32:04.598Z,18.40
2019-05-18T06:33:04.901Z,18.50
2019-05-18T06:34:04.890Z,18.50
2019-05-18T06:35:04.905Z,18.60
2019-05-18T06:36:05.019Z,18.70
2019-05-18T06:37:05.100Z,18.70
2019-05-18T06:38:04.246Z,18.80
2019-05-18T06:39:04.503Z,18.90
2019-05-18T06:40:04.470Z,18.90
2019-05-18T06:41:04.321Z,19.00
2019-05-18T06:42:04.797Z,19.10
2019-05-18T06:43:04.321Z,19.20
2019-05-18T06:44:09.839Z,19.20
2019-05-18T06:45:04.137Z,19.30
2019-05-18T06:46:04.181Z,19.30
2019-05-18T06:47:04.618Z,19.30
2019-05-18T06:48:04.712Z,19.40
2019-05-18T06:49:05.038Z,19.50
2019-05-18T06:50:04.457Z,19.50
2019-05-18T06:51:06.995Z,19.50
2019-05-18T06:52:04.203Z,19.60
2019-05-18T06:53:04.142Z,19.60
2019-05-18T06:54:05.186Z,19.60
2019-05-18T06:55:04.326Z,19.70
2019-05-18T06:56:04.380Z,19.70
2019-05-18T06:57:04.879Z,19.80
2019-05-18T06:58:05.839Z,19.80
2019-05-18T06:59:04.342Z,19.80
2019-05-18T07:00:04.619Z,19.80
2019-05-18T07:01:04.563Z,19.80
2019-05-18T07:02:04.922Z,19.80
2019-05-18T07:03:04.428Z,19.80
2019-05-18T07:04:04.459Z,19.90
2019-05-18T07:05:04.404Z,19.90
2019-05-18T07:06:04.712Z,19.90
2019-05-18T07:07:04.722Z,19.90
2019-05-18T07:08:04.755Z,19.90
2019-05-18T07:09:04.953Z,19.90
2019-05-18T07:10:04.726Z,20.00
2019-05-18T07:11:04.994Z,20.00
2019-05-18T07:12:04.169Z,20.00
2019-05-18T07:13:09.386Z,20.10
2019-05-18T07:14:04.752Z,20.10
2019-05-18T07:15:04.724Z,20.10
2019-05-18T07:16:04.970Z,20.10
2019-05-18T07:17:05.043Z,20.20
2019-05-18T07:18:05.035Z,20.20
2019-05-18T07:19:04.429Z,20.20
2019-05-18T07:20:04.376Z,20.30
2019-05-18T07:21:04.419Z,20.30
2019-05-18T07:22:04.515Z,20.30
2019-05-18T07:23:04.899Z,20.40
2019-05-18T07:24:04.485Z,20.40
2019-05-18T07:25:04.697Z,20.50
2019-05-18T07:26:04.984Z,20.50
2019-05-18T07:27:04.430Z,20.50
2019-05-18T07:28:04.363Z,20.50
2019-05-18T07:29:05.717Z,20.50
2019-05-18T07:30:04.344Z,20.60
2019-05-18T07:31:04.339Z,20.60
2019-05-18T07:32:04.376Z,20.60
2019-05-18T07:33:04.476Z,20.60
2019-05-18T07:34:05.028Z,20.70
2019-05-18T07:35:04.261Z,20.70
2019-05-18T07:36:04.292Z,20.80
2019-05-18T07:37:04.842Z,20.80
2019-05-18T07:38:04.820Z,20.80
2019-05-18T07:39:04.825Z,20.80
2019-05-18T07:40:04.223Z,20.80
2019-05-18T07:41:04.667Z,20.90
2019-05-18T07:42:04.667Z,20.80
2019-05-18T07:43:04.777Z,20.80
2019-05-18T07:44:09.892Z,20.80
2019-05-18T07:45:04.303Z,20.80
2019-05-18T07:46:04.269Z,20.80
2019-05-18T07:47:04.240Z,20.80
2019-05-18T07:48:04.399Z,20.80
2019-05-18T07:49:04.417Z,20.80
2019-05-18T07:50:04.314Z,20.80
2019-05-18T07:51:04.325Z,20.80
2019-05-18T07:52:04.643Z,20.90
2019-05-18T07:53:04.743Z,20.90
2019-05-18T07:54:04.263Z,20.90
2019-05-18T07:55:04.210Z,21.00
2019-05-18T07:56:04.415Z,21.00
2019-05-18T07:57:04.453Z,21.00
2019-05-18T07:58:05.016Z,21.10
2019-05-18T07:59:04.875Z,21.10
2019-05-18T08:00:04.907Z,21.10
2019-05-18T08:01:04.124Z,21.10
2019-05-18T08:02:04.190Z,21.00
2019-05-18T08:03:04.205Z,21.00
2019-05-18T08:04:04.493Z,21.00
2019-05-18T08:05:04.612Z,21.00
2019-05-18T08:06:04.513Z,20.90
2019-05-18T08:07:04.511Z,20.90
2019-05-18T08:08:04.947Z,20.90
2019-05-18T08:09:04.339Z,20.80
2019-05-18T08:10:04.669Z,20.80
2019-05-18T08:11:04.684Z,20.80
2019-05-18T08:12:04.685Z,20.80
2019-05-18T08:13:05.167Z,20.80
2019-05-18T08:14:04.405Z,20.70
2019-05-18T08:15:04.985Z,20.70
2019-05-18T08:16:04.855Z,20.70
2019-05-18T08:17:04.908Z,20.70
2019-05-18T08:18:04.221Z,20.70
2019-05-18T08:19:04.792Z,20.70
2019-05-18T08:20:04.812Z,20.70
2019-05-18T08:21:04.223Z,20.70
2019-05-18T08:22:04.349Z,20.70
2019-05-18T08:23:04.626Z,20.70
2019-05-18T08:24:05.368Z,20.70
2019-05-18T08:25:04.990Z,20.70
2019-05-18T08:26:04.240Z,20.70
2019-05-18T08:27:04.648Z,20.70
2019-05-18T08:28:04.620Z,20.70
2019-05-18T08:29:04.689Z,20.70
2019-05-18T08:30:04.773Z,20.70
2019-05-18T08:31:04.844Z,20.70
2019-05-18T08:32:04.152Z,20.70
2019-05-18T08:33:04.139Z,20.60
2019-05-18T08:34:04.449Z,20.60
2019-05-18T08:35:04.540Z,20.60
2019-05-18T08:36:04.450Z,20.60
2019-05-18T08:37:04.601Z,20.60
2019-05-18T08:38:04.580Z,20.50
2019-05-18T08:39:04.794Z,20.50
2019-05-18T08:40:04.535Z,20.50
2019-05-18T08:41:05.020Z,20.50
2019-05-18T08:42:04.179Z,20.40
2019-05-18T08:43:04.197Z,20.40
2019-05-18T08:44:10.152Z,20.40
2019-05-18T08:45:04.483Z,20.40
2019-05-18T08:46:04.620Z,20.40
2019-05-18T08:47:05.032Z,20.40
2019-05-18T08:48:04.427Z,20.40
2019-05-18T08:49:04.789Z,20.40
2019-05-18T08:50:04.993Z,20.50
2019-05-18T08:51:04.347Z,20.50
2019-05-18T08:52:08.070Z,20.50
2019-05-18T08:53:04.270Z,20.50
2019-05-18T08:54:04.511Z,20.60
2019-05-18T08:55:04.882Z,20.60
2019-05-18T08:56:04.901Z,20.60
2019-05-18T08:57:04.926Z,20.60
2019-05-18T08:58:04.646Z,20.60
2019-05-18T08:59:04.878Z,20.60
2019-05-18T09:00:04.862Z,20.60
2019-05-18T09:01:04.161Z,20.60
2019-05-18T09:02:04.239Z,20.60
2019-05-18T09:03:04.595Z,20.50
2019-05-18T09:04:04.214Z,20.50
2019-05-18T09:05:04.924Z,20.50
2019-05-18T09:06:04.825Z,20.50
2019-05-18T09:07:04.942Z,20.50
2019-05-18T09:08:05.013Z,20.50
2019-05-18T09:09:05.022Z,20.50
2019-05-18T09:10:04.210Z,20.50
2019-05-18T09:11:04.472Z,20.50
2019-05-18T09:12:04.660Z,20.40
2019-05-18T09:13:04.676Z,20.40
2019-05-18T09:14:04.895Z,20.40
2019-05-18T09:15:04.973Z,20.50
2019-05-18T09:16:05.010Z,20.50
2019-05-18T09:17:04.546Z,20.50
2019-05-18T09:18:04.934Z,20.50
2019-05-18T09:19:04.858Z,20.50
2019-05-18T09:20:04.868Z,20.50
2019-05-18T09:21:04.992Z,20.50
2019-05-18T09:22:04.544Z,20.50
2019-05-18T09:23:04.730Z,20.50
2019-05-18T09:24:05.027Z,20.50
2019-05-18T09:25:04.104Z,20.50
2019-05-18T09:26:04.388Z,20.60
2019-05-18T09:27:04.464Z,20.60
2019-05-18T09:28:04.354Z,20.60
2019-05-18T09:29:05.079Z,20.60
2019-05-18T09:30:04.331Z,20.60
2019-05-18T09:31:04.357Z,20.60
2019-05-18T09:32:04.878Z,20.60
2019-05-18T09:33:04.791Z,20.60
2019-05-18T09:34:04.716Z,20.60
2019-05-18T09:35:04.642Z,20.70
2019-05-18T09:36:05.104Z,20.70
2019-05-18T09:37:04.350Z,20.70
2019-05-18T09:38:04.856Z,20.70
2019-05-18T09:39:04.617Z,20.70
2019-05-18T09:40:04.694Z,20.70
2019-05-18T09:41:04.726Z,20.80
2019-05-18T09:42:04.615Z,20.80
2019-05-18T09:43:04.931Z,20.80
2019-05-18T09:44:09.930Z,20.80
2019-05-18T09:45:04.238Z,20.70
2019-05-18T09:46:04.780Z,20.70
2019-05-18T09:47:05.125Z,20.70
2019-05-18T09:48:05.191Z,20.70
2019-05-18T09:49:04.319Z,20.80
2019-05-18T09:50:04.717Z,20.80
2019-05-18T09:51:04.845Z,20.80
2019-05-18T09:52:04.874Z,20.80
2019-05-18T09:53:05.445Z,20.70
2019-05-18T09:54:04.409Z,20.70
2019-05-18T09:55:04.666Z,20.70
2019-05-18T09:56:04.461Z,20.70
2019-05-18T09:57:04.671Z,20.70
2019-05-18T09:58:04.298Z,20.70
2019-05-18T09:59:04.720Z,20.70
2019-05-18T10:00:04.208Z,20.70
2019-05-18T10:01:04.800Z,20.70
2019-05-18T10:02:05.051Z,20.70
2019-05-18T10:03:05.127Z,20.70
2019-05-18T10:04:04.744Z,20.70
2019-05-18T10:05:04.563Z,20.80
2019-05-18T10:06:04.666Z,20.80
2019-05-18T10:07:04.815Z,20.80
2019-05-18T10:08:05.236Z,20.80
2019-05-18T10:09:04.886Z,20.90
2019-05-18T10:10:04.936Z,20.90
2019-05-18T10:11:04.141Z,20.90
2019-05-18T10:12:04.816Z,20.90
2019-05-18T10:13:04.880Z,20.90
2019-05-18T10:14:04.947Z,20.90
2019-05-18T10:15:04.400Z,20.90
2019-05-18T10:16:05.074Z,20.90
2019-05-18T10:17:04.467Z,20.90
2019-05-18T10:18:04.556Z,21.00
2019-05-18T10:19:04.304Z,21.00
2019-05-18T10:20:04.692Z,21.10
2019-05-18T10:21:04.205Z,21.10
2019-05-18T10:22:04.512Z,21.10
2019-05-18T10:23:12.650Z,21.20
2019-05-18T10:24:04.450Z,21.20
2019-05-18T10:25:04.954Z,21.30
2019-05-18T10:26:04.444Z,21.30
2019-05-18T10:27:04.984Z,21.40
2019-05-18T10:28:04.842Z,21.40
2019-05-18T10:29:04.261Z,21.40
2019-05-18T10:30:04.321Z,21.50
2019-05-18T10:31:04.261Z,21.50
2019-05-18T10:32:04.597Z,21.50
2019-05-18T10:33:04.645Z,21.50
2019-05-18T10:34:05.176Z,21.60
2019-05-18T10:35:05.112Z,21.60
2019-05-18T10:36:05.075Z,21.60
2019-05-18T10:37:04.305Z,21.70
2019-05-18T10:38:04.463Z,21.70
2019-05-18T10:39:04.652Z,21.70
2019-05-18T10:40:04.383Z,21.70
2019-05-18T10:41:04.368Z,21.80
2019-05-18T10:42:04.465Z,21.80
2019-05-18T10:43:05.090Z,21.80
2019-05-18T10:44:10.363Z,21.80
2019-05-18T10:45:05.143Z,21.80
2019-05-18T10:46:04.509Z,21.80
2019-05-18T10:47:04.853Z,21.80
2019-05-18T10:48:05.108Z,21.80
2019-05-18T10:49:04.712Z,21.80
2019-05-18T10:50:04.476Z,21.80
2019-05-18T10:51:05.584Z,21.80
2019-05-18T10:52:04.391Z,21.80
2019-05-18T10:53:04.634Z,21.80
2019-05-18T10:54:04.931Z,21.80
2019-05-18T10:55:05.055Z,21.80
2019-05-18T10:56:04.912Z,21.80
2019-05-18T10:57:04.413Z,21.80
2019-05-18T10:58:04.529Z,21.80
2019-05-18T10:59:05.303Z,21.90
2019-05-18T11:00:04.627Z,21.80
2019-05-18T11:01:04.506Z,21.80
2019-05-18T11:02:04.971Z,21.80
2019-05-18T11:03:04.698Z,21.80
2019-05-18T11:04:04.835Z,21.90
2019-05-18T11:05:04.598Z,21.90
2019-05-18T11:06:04.960Z,21.90
2019-05-18T11:07:04.587Z,22.00
2019-05-18T11:08:04.871Z,22.00
2019-05-18T11:09:04.516Z,22.00
2019-05-18T11:10:05.125Z,22.00
2019-05-18T11:11:04.464Z,22.00
2019-05-18T11:12:04.939Z,22.00
2019-05-18T11:13:04.763Z,21.90
2019-05-18T11:14:05.179Z,21.80
2019-05-18T11:15:05.217Z,21.80
2019-05-18T11:16:05.157Z,21.80
2019-05-18T11:17:05.277Z,21.80
2019-05-18T11:18:04.649Z,21.70
2019-05-18T11:19:05.213Z,21.80
2019-05-18T11:20:04.834Z,21.80
2019-05-18T11:21:04.383Z,21.90
2019-05-18T11:22:04.924Z,21.90
2019-05-18T11:23:04.530Z,21.90
2019-05-18T11:24:04.618Z,21.90
2019-05-18T11:25:05.551Z,21.90
2019-05-18T11:26:04.886Z,21.90
2019-05-18T11:27:04.514Z,21.90
2019-05-18T11:28:04.518Z,21.90
2019-05-18T11:29:04.842Z,21.80
2019-05-18T11:30:04.645Z,21.80
2019-05-18T11:31:04.509Z,21.80
2019-05-18T11:32:04.281Z,21.90
2019-05-18T11:33:04.967Z,21.90
2019-05-18T11:34:04.427Z,22.00
2019-05-18T11:35:05.296Z,22.00
2019-05-18T11:36:04.708Z,22.10
2019-05-18T11:37:04.613Z,22.10
2019-05-18T11:38:05.367Z,22.10
2019-05-18T11:39:04.974Z,22.10
2019-05-18T11:40:04.590Z,22.10
2019-05-18T11:41:05.038Z,22.10
2019-05-18T11:42:04.844Z,22.10
2019-05-18T11:43:05.316Z,22.20
2019-05-18T11:44:10.844Z,22.20
2019-05-18T11:45:04.680Z,22.20
2019-05-18T11:46:04.859Z,22.20
2019-05-18T11:47:05.176Z,22.20
2019-05-18T11:48:04.725Z,22.20
2019-05-18T11:49:05.274Z,22.20
2019-05-18T11:50:04.969Z,22.20
2019-05-18T11:51:04.682Z,22.20
2019-05-18T11:52:04.739Z,22.20
2019-05-18T11:53:04.930Z,22.20
2019-05-18T11:54:05.191Z,22.30
2019-05-18T11:55:04.694Z,22.30
2019-05-18T11:56:04.726Z,22.30
2019-05-18T11:57:05.100Z,22.30
2019-05-18T11:58:04.554Z,22.30
2019-05-18T11:59:04.949Z,22.30
2019-05-18T12:00:04.551Z,22.30
2019-05-18T12:01:04.627Z,22.20
2019-05-18T12:02:04.923Z,22.20
2019-05-18T12:03:05.440Z,22.10
2019-05-18T12:04:04.835Z,22.10
2019-05-18T12:05:05.158Z,22.00
2019-05-18T12:06:04.881Z,22.00
2019-05-18T12:07:04.601Z,21.90
2019-05-18T12:08:04.999Z,21.90
2019-05-18T12:09:04.686Z,21.90
2019-05-18T12:10:04.808Z,21.90
2019-05-18T12:11:04.996Z,21.90
2019-05-18T12:12:05.025Z,21.80
2019-05-18T12:13:04.278Z,21.90
2019-05-18T12:14:05.079Z,21.90
2019-05-18T12:15:04.649Z,21.90
2019-05-18T12:16:04.671Z,21.90
2019-05-18T12:17:04.790Z,21.90
2019-05-18T12:18:04.842Z,21.90
2019-05-18T12:19:04.415Z,21.90
2019-05-18T12:20:04.680Z,21.90
2019-05-18T12:21:09.274Z,21.90
2019-05-18T12:22:04.749Z,21.90
2019-05-18T12:23:07.818Z,21.90
2019-05-18T12:24:14.554Z,21.90
2019-05-18T12:25:04.434Z,21.90
2019-05-18T12:26:04.754Z,21.90
2019-05-18T12:27:04.576Z,21.80
2019-05-18T12:28:04.632Z,21.80
2019-05-18T12:29:05.111Z,21.80
2019-05-18T12:30:04.212Z,21.80
2019-05-18T12:31:05.236Z,21.80
2019-05-18T12:32:04.809Z,21.90
2019-05-18T12:33:04.720Z,21.90
2019-05-18T12:34:04.925Z,22.00
2019-05-18T12:35:04.922Z,22.00
2019-05-18T12:36:05.074Z,22.00
2019-05-18T12:37:05.091Z,22.10
2019-05-18T12:38:04.659Z,22.10
2019-05-18T12:39:04.836Z,22.10
2019-05-18T12:40:04.570Z,22.20
2019-05-18T12:41:04.683Z,22.30
2019-05-18T12:42:07.547Z,22.30
2019-05-18T12:43:04.377Z,22.30
2019-05-18T12:44:04.646Z,22.30
2019-05-18T12:45:04.767Z,22.40
2019-05-18T12:46:04.852Z,22.40
2019-05-18T12:47:05.189Z,22.40
2019-05-18T12:48:04.358Z,22.50
2019-05-18T12:49:04.597Z,22.50
2019-05-18T12:50:05.079Z,22.50
2019-05-18T12:51:04.231Z,22.50
2019-05-18T12:52:04.528Z,22.50
2019-05-18T12:53:04.986Z,22.50
2019-05-18T12:54:04.359Z,22.40
2019-05-18T12:55:09.337Z,22.40
2019-05-18T12:56:04.810Z,22.40
2019-05-18T12:57:04.878Z,22.30
2019-05-18T12:58:05.073Z,22.30
2019-05-18T12:59:05.073Z,22.30
2019-05-18T13:00:04.846Z,22.30
2019-05-18T13:01:05.237Z,22.30
2019-05-18T13:02:04.699Z,22.30